Time;durP1;ratioP1;P1;durP2;ratioP2;P2;SDS_P1;SDS_P2;PMS_P1;PMS_P2;Temp;Humidity;BMP_temperature;BMP_pressure;BME280_temperature;BME280_humidity;BME280_pressure;Samples;Min_cycle;Max_cycle;Signal;HPM_P1;HPM_P2
2021/06/05 00:04:05;;;;;;;9.18;6.95;;;;;;;;;;10148983;28;20145;-70
2021/06/05 00:09:03;;;;;;;8.73;6.95;;;;;;;;;;10152643;28;20100;-71
2021/06/05 00:14:01;;;;;;;8.38;7.30;;;;;;;;;;10168001;28;20097;-73
2021/06/05 00:18:57;;;;;;;10.02;7.15;;;;;;;;;;10151732;28;20089;-71
2021/06/05 00:23:54;;;;;;;10.82;8.05;;;;;;;;;;10163528;28;20046;-71
2021/06/05 00:28:51;;;;;;;11.05;7.28;;;;;;;;;;10156294;28;20893;-74
2021/06/05 00:33:47;;;;;;;10.25;7.10;;;;;;;;;;10143067;28;20042;-75
2021/06/05 00:38:44;;;;;;;11.57;7.25;;;;;;;;;;10151569;28;20065;-75
2021/06/05 00:43:42;;;;;;;10.40;7.20;;;;;;;;;;10153528;28;20120;-75
2021/06/05 00:48:38;;;;;;;10.27;7.22;;;;;;;;;;10131453;28;20062;-74
2021/06/05 00:53:34;;;;;;;9.75;7.35;;;;;;;;;;10157828;28;20085;-76
2021/06/05 00:58:31;;;;;;;11.20;7.40;;;;;;;;;;10145903;28;20074;-74
2021/06/05 01:03:27;;;;;;;10.10;7.65;;;;;;;;;;10147802;28;20463;-70
2021/06/05 01:08:26;;;;;;;10.20;7.03;;;;;;;;;;10162947;28;20038;-73
2021/06/05 01:13:25;;;;;;;9.65;7.45;;;;;;;;;;10147837;28;20164;-72
2021/06/05 01:18:30;;;;;;;8.43;7.53;;;;;;;;;;10157716;28;20114;-73
2021/06/05 01:23:42;;;;;;;9.85;7.00;;;;;;;;;;10151479;28;20042;-71
2021/06/05 01:28:39;;;;;;;10.00;7.18;;;;;;;;;;10148923;28;20125;-72
2021/06/05 01:33:37;;;;;;;10.13;7.35;;;;;;;;;;10148569;28;20132;-73
2021/06/05 01:38:36;;;;;;;9.95;7.35;;;;;;;;;;10160861;28;20047;-72
2021/06/05 01:43:33;;;;;;;8.80;7.03;;;;;;;;;;10145619;28;20073;-71
2021/06/05 01:48:29;;;;;;;11.10;6.93;;;;;;;;;;10162312;28;20065;-72
2021/06/05 01:53:33;;;;;;;10.60;8.20;;;;;;;;;;10139199;28;20476;-72
2021/06/05 01:58:30;;;;;;;10.30;7.28;;;;;;;;;;10141767;28;21068;-72
2021/06/05 02:03:26;;;;;;;8.68;7.43;;;;;;;;;;10154129;28;20062;-73
2021/06/05 02:08:24;;;;;;;15.13;8.27;;;;;;;;;;10135936;28;20077;-71
2021/06/05 02:13:27;;;;;;;12.63;7.30;;;;;;;;;;10147008;28;20591;-71
2021/06/05 02:18:27;;;;;;;12.27;7.10;;;;;;;;;;10143175;28;20472;-71
2021/06/05 02:23:31;;;;;;;12.55;7.53;;;;;;;;;;10151299;28;20453;-71
2021/06/05 02:28:27;;;;;;;10.20;7.35;;;;;;;;;;10145980;28;20097;-71
2021/06/05 02:33:24;;;;;;;8.90;6.93;;;;;;;;;;10143858;28;20137;-70
2021/06/05 02:38:21;;;;;;;9.75;8.00;;;;;;;;;;10154543;28;20535;-72
2021/06/05 02:43:20;;;;;;;8.27;7.25;;;;;;;;;;10155212;28;20134;-74
2021/06/05 02:48:16;;;;;;;10.82;7.63;;;;;;;;;;10150792;28;20061;-73
2021/06/05 02:53:13;;;;;;;9.85;7.55;;;;;;;;;;10170723;28;20130;-75
2021/06/05 02:58:09;;;;;;;9.45;7.18;;;;;;;;;;10159057;28;20126;-74
2021/06/05 03:03:07;;;;;;;10.40;7.53;;;;;;;;;;10166017;28;20080;-75
2021/06/05 03:08:06;;;;;;;9.13;7.90;;;;;;;;;;10155165;28;20416;-73
2021/06/05 03:13:03;;;;;;;10.20;8.07;;;;;;;;;;10156533;28;20057;-74
2021/06/05 03:17:59;;;;;;;15.85;7.82;;;;;;;;;;10157913;28;20153;-73
2021/06/05 03:22:57;;;;;;;9.45;7.40;;;;;;;;;;10153340;28;20494;-76
2021/06/05 03:27:54;;;;;;;14.35;7.80;;;;;;;;;;10153312;28;20046;-71
2021/06/05 03:32:50;;;;;;;9.27;7.97;;;;;;;;;;10158116;28;20153;-71
2021/06/05 03:37:47;;;;;;;9.20;7.28;;;;;;;;;;10159878;28;20072;-72
2021/06/05 03:42:43;;;;;;;7.93;7.07;;;;;;;;;;10161781;28;20133;-70
2021/06/05 03:47:46;;;;;;;10.90;7.47;;;;;;;;;;10153247;28;20058;-69
2021/06/05 03:52:42;;;;;;;10.73;7.50;;;;;;;;;;10167339;28;20504;-70
2021/06/05 03:57:39;;;;;;;9.10;7.47;;;;;;;;;;10165013;28;20103;-71
2021/06/05 04:02:35;;;;;;;12.73;7.60;;;;;;;;;;10143238;28;20121;-70
2021/06/05 04:07:31;;;;;;;8.25;6.82;;;;;;;;;;10160193;28;20069;-71
2021/06/05 04:12:28;;;;;;;8.48;6.88;;;;;;;;;;10152243;28;20492;-70
2021/06/05 04:17:24;;;;;;;9.50;7.55;;;;;;;;;;10155386;28;20038;-70
2021/06/05 04:22:21;;;;;;;8.20;6.82;;;;;;;;;;10137224;28;20101;-71
2021/06/05 04:27:17;;;;;;;9.38;7.03;;;;;;;;;;10147131;28;20094;-73
2021/06/05 04:32:13;;;;;;;11.10;7.75;;;;;;;;;;10162535;28;20108;-71
2021/06/05 04:37:10;;;;;;;9.57;8.40;;;;;;;;;;10157033;28;20475;-72
2021/06/05 04:42:06;;;;;;;7.63;6.45;;;;;;;;;;10144713;28;20497;-70
2021/06/05 04:47:03;;;;;;;10.45;7.75;;;;;;;;;;10153801;28;20065;-73
2021/06/05 04:51:59;;;;;;;8.30;6.40;;;;;;;;;;10142367;28;20046;-73
2021/06/05 04:56:56;;;;;;;8.75;7.13;;;;;;;;;;10134636;28;20109;-73
2021/06/05 05:01:52;;;;;;;9.38;6.30;;;;;;;;;;10142313;28;20165;-73
2021/06/05 05:06:48;;;;;;;11.05;7.07;;;;;;;;;;10146086;28;20070;-71
2021/06/05 05:11:45;;;;;;;10.38;6.55;;;;;;;;;;10155731;28;20100;-73
2021/06/05 05:16:41;;;;;;;11.82;7.07;;;;;;;;;;10152762;28;20738;-72
2021/06/05 05:21:39;;;;;;;10.55;6.97;;;;;;;;;;10138057;28;20038;-71
2021/06/05 05:26:35;;;;;;;10.40;6.30;;;;;;;;;;10147538;28;20057;-72
2021/06/05 05:31:32;;;;;;;11.38;6.32;;;;;;;;;;10146625;28;20143;-68
2021/06/05 05:36:30;;;;;;;8.13;6.57;;;;;;;;;;10135151;28;20049;-71
2021/06/05 05:41:27;;;;;;;12.85;7.40;;;;;;;;;;10139507;28;20050;-76
2021/06/05 05:46:25;;;;;;;11.27;7.20;;;;;;;;;;10150559;28;20421;-76
2021/06/05 05:51:22;;;;;;;12.07;6.13;;;;;;;;;;10164384;28;20077;-77
2021/06/05 05:56:20;;;;;;;8.73;6.53;;;;;;;;;;10153369;28;20974;-75
2021/06/05 06:01:19;;;;;;;8.98;7.57;;;;;;;;;;10160165;28;20078;-76
2021/06/05 06:06:16;;;;;;;10.35;7.00;;;;;;;;;;10135825;28;20050;-74
2021/06/05 06:11:13;;;;;;;10.45;6.63;;;;;;;;;;10136787;28;20448;-74
2021/06/05 06:16:12;;;;;;;13.65;6.63;;;;;;;;;;10129614;28;20412;-74
2021/06/05 06:21:09;;;;;;;7.10;5.78;;;;;;;;;;10132509;28;20042;-73
2021/06/05 06:26:11;;;;;;;8.60;5.97;;;;;;;;;;10127949;28;20420;-73
2021/06/05 06:31:08;;;;;;;6.88;5.25;;;;;;;;;;10142024;28;20086;-74
2021/06/05 06:36:05;;;;;;;8.90;6.45;;;;;;;;;;10130631;28;20509;-74
2021/06/05 06:41:02;;;;;;;8.75;6.13;;;;;;;;;;10152746;28;20153;-70
2021/06/05 06:46:00;;;;;;;7.75;5.72;;;;;;;;;;10133390;28;20544;-69
2021/06/05 06:50:57;;;;;;;10.32;6.18;;;;;;;;;;10151198;28;20045;-70
2021/06/05 06:55:53;;;;;;;8.48;5.80;;;;;;;;;;10141003;28;20742;-69
2021/06/05 07:00:50;;;;;;;8.48;4.63;;;;;;;;;;10140983;28;20038;-72
2021/06/05 07:05:47;;;;;;;11.65;6.22;;;;;;;;;;10129987;28;20058;-66
2021/06/05 07:10:44;;;;;;;7.60;5.45;;;;;;;;;;10133809;28;20096;-69
2021/06/05 07:15:41;;;;;;;6.95;5.00;;;;;;;;;;10134189;28;20070;-69
2021/06/05 07:20:37;;;;;;;7.03;4.97;;;;;;;;;;10150958;28;20528;-65
2021/06/05 07:25:34;;;;;;;9.07;5.03;;;;;;;;;;10138628;28;20671;-68
2021/06/05 07:30:31;;;;;;;6.68;4.15;;;;;;;;;;10155327;28;20064;-69
2021/06/05 07:35:27;;;;;;;8.35;4.60;;;;;;;;;;10137704;28;20136;-69
2021/06/05 07:40:23;;;;;;;6.55;4.03;;;;;;;;;;10141339;28;20045;-69
2021/06/05 07:45:21;;;;;;;7.28;4.15;;;;;;;;;;10133853;28;20901;-67
2021/06/05 07:50:17;;;;;;;7.45;4.22;;;;;;;;;;10137799;28;20046;-70
2021/06/05 07:55:13;;;;;;;4.72;3.15;;;;;;;;;;10136624;28;20106;-68
2021/06/05 08:00:12;;;;;;;9.15;3.75;;;;;;;;;;10132760;28;20058;-69
2021/06/05 08:05:09;;;;;;;7.20;3.30;;;;;;;;;;10126407;28;20477;-67
2021/06/05 08:10:08;;;;;;;6.80;3.55;;;;;;;;;;10122534;28;20104;-70
2021/06/05 08:15:07;;;;;;;5.82;3.50;;;;;;;;;;10124091;28;20085;-68
2021/06/05 08:20:05;;;;;;;6.50;3.50;;;;;;;;;;10125091;28;20070;-68
2021/06/05 08:25:03;;;;;;;4.95;2.97;;;;;;;;;;10126338;28;20047;-68
2021/06/05 08:30:00;;;;;;;16.35;8.20;;;;;;;;;;10119945;28;20497;-66
2021/06/05 08:34:56;;;;;;;6.50;3.40;;;;;;;;;;10127591;28;20066;-67
2021/06/05 08:39:53;;;;;;;6.97;3.35;;;;;;;;;;10122476;28;20531;-70
2021/06/05 08:44:50;;;;;;;5.47;3.35;;;;;;;;;;10143065;28;20470;-71
2021/06/05 08:49:47;;;;;;;5.90;2.70;;;;;;;;;;10130166;28;20051;-69
2021/06/05 08:54:49;;;;;;;5.18;2.90;;;;;;;;;;10137378;28;20077;-67
2021/06/05 08:59:47;;;;;;;6.03;2.78;;;;;;;;;;10122698;28;20505;-67
2021/06/05 09:04:44;;;;;;;9.88;2.92;;;;;;;;;;10133285;28;20137;-66
2021/06/05 09:09:42;;;;;;;4.90;2.88;;;;;;;;;;10125142;28;20078;-67
2021/06/05 09:14:38;;;;;;;5.88;3.10;;;;;;;;;;10127389;28;20047;-67
2021/06/05 09:19:35;;;;;;;7.40;3.33;;;;;;;;;;10123596;28;20076;-67
2021/06/05 09:24:39;;;;;;;6.75;2.95;;;;;;;;;;10130373;28;20588;-67
2021/06/05 09:29:47;;;;;;;7.07;3.00;;;;;;;;;;10144610;28;20104;-67
2021/06/05 09:34:46;;;;;;;4.28;2.40;;;;;;;;;;10147245;28;20051;-67
2021/06/05 09:39:47;;;;;;;19.40;9.13;;;;;;;;;;10140397;28;20069;-66
2021/06/05 09:44:46;;;;;;;7.95;3.22;;;;;;;;;;10143753;28;20043;-68
2021/06/05 09:49:46;;;;;;;6.50;2.45;;;;;;;;;;10121166;28;20142;-65
2021/06/05 09:54:44;;;;;;;4.43;2.58;;;;;;;;;;10120789;28;20133;-67
2021/06/05 09:59:41;;;;;;;5.10;2.95;;;;;;;;;;10124647;28;20188;-66
2021/06/05 10:04:37;;;;;;;5.38;2.70;;;;;;;;;;10120386;28;20043;-67
2021/06/05 10:09:36;;;;;;;3.28;1.98;;;;;;;;;;10124719;28;20062;-67
2021/06/05 10:14:38;;;;;;;7.70;3.00;;;;;;;;;;10135350;28;20093;-68
2021/06/05 10:19:37;;;;;;;4.87;2.50;;;;;;;;;;10129344;28;20066;-69
2021/06/05 10:24:39;;;;;;;4.32;2.33;;;;;;;;;;10153115;28;20088;-67
2021/06/05 10:29:43;;;;;;;4.22;2.67;;;;;;;;;;10154815;28;20104;-69
2021/06/05 10:34:42;;;;;;;4.55;2.65;;;;;;;;;;10139780;28;20507;-67
2021/06/05 10:39:40;;;;;;;5.20;2.65;;;;;;;;;;10147581;28;20078;-68
2021/06/05 10:44:36;;;;;;;4.47;2.72;;;;;;;;;;10149258;28;20073;-67
2021/06/05 10:49:35;;;;;;;5.53;2.85;;;;;;;;;;10160666;28;20042;-64
2021/06/05 10:54:32;;;;;;;3.85;2.80;;;;;;;;;;10140379;28;20567;-69
2021/06/05 10:59:49;;;;;;;4.38;2.45;;;;;;;;;;10149697;28;20054;-67
2021/06/05 11:04:46;;;;;;;5.55;2.75;;;;;;;;;;10140948;28;20093;-69
2021/06/05 11:09:49;;;;;;;5.28;2.88;;;;;;;;;;10133447;28;20042;-69
2021/06/05 11:14:47;;;;;;;4.65;2.65;;;;;;;;;;10135002;28;20424;-70
2021/06/05 11:19:53;;;;;;;4.50;2.85;;;;;;;;;;10129944;28;20553;-67
2021/06/05 11:25:05;;;;;;;4.80;2.60;;;;;;;;;;10143181;28;20047;-69
2021/06/05 11:30:07;;;;;;;4.57;2.90;;;;;;;;;;10133305;28;20079;-68
2021/06/05 11:35:11;;;;;;;5.40;3.08;;;;;;;;;;10127168;28;20509;-67
2021/06/05 11:40:09;;;;;;;4.63;2.80;;;;;;;;;;10130307;28;20077;-70
2021/06/05 11:45:26;;;;;;;6.13;3.35;;;;;;;;;;10134880;28;20130;-69
2021/06/05 11:50:25;;;;;;;4.18;2.63;;;;;;;;;;10125585;28;20051;-68
2021/06/05 11:55:36;;;;;;;4.80;2.97;;;;;;;;;;10137714;28;20710;-69
2021/06/05 12:00:44;;;;;;;5.33;2.50;;;;;;;;;;10134790;28;20129;-71
2021/06/05 12:05:42;;;;;;;4.05;2.63;;;;;;;;;;10146579;28;20073;-69
2021/06/05 12:10:39;;;;;;;5.00;2.80;;;;;;;;;;10142004;28;20105;-68
2021/06/05 12:15:37;;;;;;;6.47;2.92;;;;;;;;;;10146532;28;20066;-67
2021/06/05 12:20:39;;;;;;;4.25;2.97;;;;;;;;;;10147649;28;20070;-68
2021/06/05 12:25:40;;;;;;;7.45;2.80;;;;;;;;;;10148955;28;20130;-67
2021/06/05 12:30:41;;;;;;;4.80;2.70;;;;;;;;;;10146680;28;20079;-69
2021/06/05 12:35:40;;;;;;;4.95;2.60;;;;;;;;;;10130223;28;20052;-68
2021/06/05 12:40:38;;;;;;;7.90;2.95;;;;;;;;;;10139696;28;20104;-68
2021/06/05 12:45:36;;;;;;;5.30;3.08;;;;;;;;;;10133445;28;20046;-68
2021/06/05 12:50:34;;;;;;;5.07;2.80;;;;;;;;;;10141951;28;20145;-68
2021/06/05 12:55:34;;;;;;;5.60;2.95;;;;;;;;;;10141924;28;20046;-69
2021/06/05 13:00:30;;;;;;;7.18;2.90;;;;;;;;;;10135605;28;20058;-69
2021/06/05 13:05:28;;;;;;;3.60;2.42;;;;;;;;;;10130701;28;20066;-69
2021/06/05 13:10:30;;;;;;;5.97;2.80;;;;;;;;;;10138629;28;20046;-69
2021/06/05 13:15:31;;;;;;;7.50;5.78;;;;;;;;;;10135531;28;20141;-69
2021/06/05 13:20:31;;;;;;;5.38;3.13;;;;;;;;;;10136781;28;20512;-69
2021/06/05 13:25:28;;;;;;;7.63;5.40;;;;;;;;;;10136177;28;20145;-68
2021/06/05 13:30:35;;;;;;;5.47;3.58;;;;;;;;;;10146158;28;20054;-69
2021/06/05 13:35:37;;;;;;;4.40;2.42;;;;;;;;;;10137869;28;20046;-69
2021/06/05 13:40:33;;;;;;;4.82;2.63;;;;;;;;;;10144357;28;20532;-68
2021/06/05 13:45:30;;;;;;;4.57;2.90;;;;;;;;;;10147951;28;20112;-68
2021/06/05 13:50:28;;;;;;;5.05;3.00;;;;;;;;;;10140194;28;20508;-69
2021/06/05 13:55:27;;;;;;;4.20;2.30;;;;;;;;;;10143948;28;20151;-68
2021/06/05 14:00:25;;;;;;;5.13;2.25;;;;;;;;;;10152741;28;20057;-68
2021/06/05 14:05:22;;;;;;;4.63;3.10;;;;;;;;;;10146439;28;20557;-68
2021/06/05 14:10:23;;;;;;;4.68;2.50;;;;;;;;;;10152002;28;20479;-69
2021/06/05 14:15:21;;;;;;;4.00;2.30;;;;;;;;;;10156508;28;20145;-67
2021/06/05 14:20:20;;;;;;;5.13;2.55;;;;;;;;;;10145750;28;20595;-68
2021/06/05 14:25:17;;;;;;;4.75;2.90;;;;;;;;;;10144037;28;20086;-67
2021/06/05 14:30:16;;;;;;;4.90;3.28;;;;;;;;;;10148612;28;20047;-69
2021/06/05 14:35:13;;;;;;;5.03;2.90;;;;;;;;;;10140874;28;20140;-68
2021/06/05 14:40:10;;;;;;;6.15;2.97;;;;;;;;;;10137502;28;20365;-68
2021/06/05 14:45:09;;;;;;;4.78;2.63;;;;;;;;;;10155632;28;20046;-69
2021/06/05 14:50:06;;;;;;;6.05;3.25;;;;;;;;;;10147686;28;20133;-67
2021/06/05 14:55:03;;;;;;;5.85;3.40;;;;;;;;;;10138906;28;20058;-68
2021/06/05 14:59:59;;;;;;;6.25;3.30;;;;;;;;;;10135263;28;20086;-68
2021/06/05 15:04:56;;;;;;;5.63;2.72;;;;;;;;;;10141447;28;20126;-68
2021/06/05 15:09:52;;;;;;;7.88;3.40;;;;;;;;;;10138000;28;20038;-69
2021/06/05 15:14:48;;;;;;;8.93;3.70;;;;;;;;;;10138893;28;20133;-69
2021/06/05 15:19:45;;;;;;;7.05;3.67;;;;;;;;;;10135171;28;20081;-69
2021/06/05 15:24:41;;;;;;;14.52;4.72;;;;;;;;;;10149468;28;20137;-69
2021/06/05 15:29:38;;;;;;;6.40;4.18;;;;;;;;;;10137508;28;20108;-69
2021/06/05 15:34:34;;;;;;;7.82;4.38;;;;;;;;;;10145679;28;20520;-68
2021/06/05 15:39:31;;;;;;;6.15;3.22;;;;;;;;;;10129840;28;20053;-69
2021/06/05 15:44:27;;;;;;;7.65;4.20;;;;;;;;;;10139479;28;20101;-69
2021/06/05 15:49:23;;;;;;;9.38;4.28;;;;;;;;;;10141400;28;20516;-67
2021/06/05 15:54:25;;;;;;;8.63;4.55;;;;;;;;;;10136991;28;20090;-69
2021/06/05 15:59:21;;;;;;;7.40;3.77;;;;;;;;;;10135286;28;20422;-70
2021/06/05 16:04:19;;;;;;;6.07;4.40;;;;;;;;;;10133343;28;20134;-69
2021/06/05 16:09:15;;;;;;;6.82;4.22;;;;;;;;;;10130138;28;20074;-68
2021/06/05 16:14:12;;;;;;;6.82;5.18;;;;;;;;;;10134815;28;20078;-68
2021/06/05 16:19:08;;;;;;;18.95;16.77;;;;;;;;;;10127247;28;20066;-69
2021/06/05 16:24:05;;;;;;;22.77;20.58;;;;;;;;;;10136325;28;20081;-67
2021/06/05 16:29:02;;;;;;;22.15;19.60;;;;;;;;;;10147436;28;20847;-68
2021/06/05 16:33:58;;;;;;;18.92;17.02;;;;;;;;;;10137427;28;20515;-68
2021/06/05 16:38:54;;;;;;;20.92;16.05;;;;;;;;;;10138524;28;20042;-68
2021/06/05 16:43:51;;;;;;;18.70;16.73;;;;;;;;;;10146622;28;20141;-68
2021/06/05 16:48:47;;;;;;;20.15;18.17;;;;;;;;;;10139795;28;20100;-69
2021/06/05 16:53:44;;;;;;;17.85;14.57;;;;;;;;;;10149968;28;20046;-68
2021/06/05 16:58:41;;;;;;;17.25;15.27;;;;;;;;;;10129378;28;20046;-68
2021/06/05 17:03:37;;;;;;;15.35;13.75;;;;;;;;;;10137984;28;20042;-68
2021/06/05 17:08:35;;;;;;;16.10;14.40;;;;;;;;;;10142676;28;20146;-66
2021/06/05 17:13:32;;;;;;;16.25;12.77;;;;;;;;;;10126791;28;20052;-68
2021/06/05 17:18:29;;;;;;;16.30;14.60;;;;;;;;;;10127026;28;20077;-69
2021/06/05 17:23:28;;;;;;;12.95;11.52;;;;;;;;;;10133284;28;20058;-69
2021/06/05 17:28:25;;;;;;;15.10;13.60;;;;;;;;;;10142472;28;20043;-68
2021/06/05 17:33:23;;;;;;;12.13;10.88;;;;;;;;;;10134570;28;20039;-68
2021/06/05 17:38:20;;;;;;;14.10;12.27;;;;;;;;;;10131201;28;20073;-70
2021/06/05 17:43:17;;;;;;;14.27;11.65;;;;;;;;;;10114171;28;20689;-67
2021/06/05 17:48:16;;;;;;;12.73;11.02;;;;;;;;;;10125149;28;20127;-67
2021/06/05 17:53:14;;;;;;;13.23;11.93;;;;;;;;;;10128487;28;20397;-68
2021/06/05 17:58:11;;;;;;;16.20;12.30;;;;;;;;;;10128768;28;20054;-69
2021/06/05 18:03:10;;;;;;;14.27;11.95;;;;;;;;;;10128379;28;20089;-70
2021/06/05 18:08:07;;;;;;;16.40;13.32;;;;;;;;;;10130155;28;20078;-68
2021/06/05 18:13:04;;;;;;;18.27;15.20;;;;;;;;;;10131340;28;20089;-67
2021/06/05 18:18:00;;;;;;;13.65;12.02;;;;;;;;;;10130335;28;20520;-70
2021/06/05 18:22:59;;;;;;;14.07;12.65;;;;;;;;;;10122877;28;20493;-68
2021/06/05 18:27:56;;;;;;;12.15;10.95;;;;;;;;;;10122914;28;20079;-67
2021/06/05 18:32:53;;;;;;;14.15;12.55;;;;;;;;;;10132326;28;20464;-70
2021/06/05 18:37:50;;;;;;;14.13;12.65;;;;;;;;;;10135426;28;20054;-68
2021/06/05 18:42:47;;;;;;;16.05;12.43;;;;;;;;;;10141667;28;20133;-70
2021/06/05 18:47:43;;;;;;;14.82;12.88;;;;;;;;;;10141806;28;20080;-69
2021/06/05 18:52:40;;;;;;;14.00;11.30;;;;;;;;;;10135259;28;20109;-68
2021/06/05 18:57:36;;;;;;;15.88;13.23;;;;;;;;;;10139340;28;20054;-65
2021/06/05 19:02:35;;;;;;;15.90;12.60;;;;;;;;;;10140357;28;20100;-68
2021/06/05 19:07:31;;;;;;;15.95;12.90;;;;;;;;;;10131688;28;20129;-67
2021/06/05 19:12:42;;;;;;;14.38;12.82;;;;;;;;;;10136738;28;20038;-68
2021/06/05 19:17:42;;;;;;;16.70;14.90;;;;;;;;;;10126384;28;20500;-67
2021/06/05 19:22:40;;;;;;;17.73;15.85;;;;;;;;;;10107838;28;20079;-67
2021/06/05 19:27:36;;;;;;;15.98;14.02;;;;;;;;;;10130161;28;20078;-68
2021/06/05 19:32:37;;;;;;;18.98;15.60;;;;;;;;;;10134477;28;20141;-68
2021/06/05 19:37:34;;;;;;;19.30;17.30;;;;;;;;;;10134776;28;20098;-64
2021/06/05 19:42:30;;;;;;;17.75;14.68;;;;;;;;;;10145316;28;20133;-67
2021/06/05 19:47:27;;;;;;;22.00;19.50;;;;;;;;;;10127496;28;20197;-68
2021/06/05 19:52:23;;;;;;;21.17;16.88;;;;;;;;;;10132480;28;20085;-72
2021/06/05 19:57:21;;;;;;;18.25;16.35;;;;;;;;;;10126968;28;20047;-76
2021/06/05 20:02:17;;;;;;;18.88;16.98;;;;;;;;;;10125366;28;20544;-75
2021/06/05 20:07:14;;;;;;;19.25;17.15;;;;;;;;;;10126114;28;20137;-71
2021/06/05 20:12:11;;;;;;;18.38;16.48;;;;;;;;;;10132403;28;20468;-75
2021/06/05 20:17:07;;;;;;;19.50;17.58;;;;;;;;;;10154701;28;20047;-74
2021/06/05 20:22:04;;;;;;;19.77;17.85;;;;;;;;;;10148986;28;20140;-74
2021/06/05 20:27:04;;;;;;;22.70;20.45;;;;;;;;;;10149925;28;20047;-76
2021/06/05 20:32:01;;;;;;;24.17;21.77;;;;;;;;;;10128859;28;20124;-70
2021/06/05 20:36:57;;;;;;;26.67;23.80;;;;;;;;;;10149882;28;20056;-70
2021/06/05 20:41:54;;;;;;;22.25;19.88;;;;;;;;;;10150381;28;21048;-74
2021/06/05 20:46:50;;;;;;;24.58;22.27;;;;;;;;;;10150981;28;20083;-73
2021/06/05 20:51:48;;;;;;;24.88;22.33;;;;;;;;;;10147600;28;20046;-72
2021/06/05 20:56:46;;;;;;;22.58;20.17;;;;;;;;;;10134575;28;20527;-70
2021/06/05 21:01:42;;;;;;;22.60;20.35;;;;;;;;;;10135170;28;20134;-74
2021/06/05 21:06:41;;;;;;;28.85;25.95;;;;;;;;;;10130763;28;20042;-70
2021/06/05 21:11:37;;;;;;;24.65;22.33;;;;;;;;;;10128382;28;20110;-70
2021/06/05 21:16:33;;;;;;;22.05;19.95;;;;;;;;;;10130547;28;20602;-72
2021/06/05 21:21:31;;;;;;;22.88;20.52;;;;;;;;;;10132731;28;20511;-74
2021/06/05 21:26:28;;;;;;;22.25;19.80;;;;;;;;;;10138393;28;20062;-72
2021/06/05 21:31:25;;;;;;;21.67;19.52;;;;;;;;;;10135645;28;20137;-74
2021/06/05 21:36:22;;;;;;;19.23;17.38;;;;;;;;;;10135456;28;20076;-71
2021/06/05 21:41:19;;;;;;;17.13;15.32;;;;;;;;;;10134356;28;20144;-71
2021/06/05 21:46:16;;;;;;;15.60;12.18;;;;;;;;;;10135069;28;20532;-75
2021/06/05 21:51:14;;;;;;;14.25;11.15;;;;;;;;;;10139198;28;20066;-74
2021/06/05 21:56:11;;;;;;;11.85;10.32;;;;;;;;;;10142713;28;20397;-74
2021/06/05 22:01:13;;;;;;;12.45;9.80;;;;;;;;;;10133112;28;20100;-74
2021/06/05 22:06:14;;;;;;;11.05;8.80;;;;;;;;;;10135602;28;20054;-74
2021/06/05 22:11:19;;;;;;;11.18;8.35;;;;;;;;;;10139453;28;20079;-72
2021/06/05 22:16:17;;;;;;;10.75;8.77;;;;;;;;;;10133289;28;20050;-68
2021/06/05 22:21:17;;;;;;;11.32;8.80;;;;;;;;;;10143889;28;20049;-70
2021/06/05 22:26:21;;;;;;;10.90;8.90;;;;;;;;;;10138869;28;20045;-70
2021/06/05 22:31:20;;;;;;;10.95;8.27;;;;;;;;;;10145312;28;20057;-69
2021/06/05 22:36:17;;;;;;;8.90;6.68;;;;;;;;;;10134649;28;20050;-69
2021/06/05 22:41:14;;;;;;;8.40;6.03;;;;;;;;;;10144111;28;20120;-74
2021/06/05 22:46:10;;;;;;;8.52;6.50;;;;;;;;;;10137870;28;20050;-73
2021/06/05 22:51:18;;;;;;;9.10;6.20;;;;;;;;;;10135726;28;20097;-73
2021/06/05 22:56:16;;;;;;;8.70;6.22;;;;;;;;;;10142707;28;20058;-71
2021/06/05 23:01:13;;;;;;;8.57;5.90;;;;;;;;;;10156509;28;20100;-74
2021/06/05 23:06:11;;;;;;;9.75;5.78;;;;;;;;;;10140414;28;20499;-74
2021/06/05 23:11:09;;;;;;;8.13;7.07;;;;;;;;;;10147079;28;20047;-74
2021/06/05 23:16:06;;;;;;;16.13;7.57;;;;;;;;;;10141378;28;20050;-71
2021/06/05 23:21:03;;;;;;;9.23;7.28;;;;;;;;;;10154681;28;20056;-73
2021/06/05 23:26:00;;;;;;;10.80;8.10;;;;;;;;;;10132747;28;20092;-69
2021/06/05 23:30:56;;;;;;;10.38;8.75;;;;;;;;;;10136841;28;20134;-74
2021/06/05 23:35:54;;;;;;;11.73;9.57;;;;;;;;;;10139243;28;20066;-73
2021/06/05 23:40:51;;;;;;;10.02;8.98;;;;;;;;;;10140885;28;20105;-71
2021/06/05 23:45:49;;;;;;;12.63;10.05;;;;;;;;;;10143739;28;20567;-72
2021/06/05 23:50:46;;;;;;;31.45;28.05;;;;;;;;;;10141730;28;20082;-72
2021/06/05 23:55:45;;;;;;;36.13;32.42;;;;;;;;;;10142780;28;20146;-72
